Nearby METAR Reports

 

KSJC - San Jose, California, USA
Distance from station: NE 9mi, 14km
Updated: 08,25/2019 1:53am
Clear
Clear
 Wind from NW
Wind: NW 7 mph , 11 km/h
Temperature: 66°F , 19°C
Dew Point: 63°F , 17°C
Humidity: 88%
Barometer: 29.97 inHg , 1014.9 hPa
Clouds: Clear
Visibility: 10 miles , 16 km
2019/08/25 05:53 KSJC 250553Z 32006KT 10SM CLR 19/17 A2997 RMK AO2 SLP146 T01890167 10261 20189 53012
KNUQ - Moffett Nas/Mtn, California, USA
Distance from station: N 9mi, 14km
Updated: 08,25/2019 2:43am
Few Clouds
Few Clouds
 Wind from NW
Wind: NW 5 mph , 7 km/h
Temperature: 66°F , 19°C
Dew Point: 63°F , 17°C
Humidity: 88%
Barometer: 29.97 inHg , 1014.9 hPa
Clouds: Few Clouds
Visibility: 10 miles , 16 km
Cloud details: Few Clouds 800 ft
2019/08/25 06:43 KNUQ 250643Z 31004KT 10SM FEW008 19/17 A2997 RMK AO2 T01890167
KPAO - Palo Alto, California, USA
Distance from station: NNW 14mi, 23km
Updated: 08,24/2019 11:47pm
NOT Current
Clear
Clear
 Wind from NW
Wind: NW 8 mph , 13 km/h
Temperature: 66°F , 19°C
Dew Point: 61°F , 16°C
Humidity: 83%
Barometer: 29.94 inHg , 1013.9 hPa
Clouds: Clear
Visibility: 10 miles , 16 km
2019/08/25 03:47 KPAO 250347Z 31007KT 10SM SKC 19/16 A2994 RMK LAST.GPS N/A NIGHT
 
KRHV - San Jose/Reid, California, USA
Distance from station: ENE 12mi, 19km
Updated: 08,25/2019 12:55am
NOT Current
Clear
Clear
 Wind from NW
Wind: NW 6 mph , 9 km/h
Temperature: 68°F , 20°C
Dew Point: 61°F , 16°C
Humidity: 78%
Barometer: 29.96 inHg , 1014.6 hPa
Clouds: Clear
Visibility: 10 miles , 16 km
2019/08/25 04:55 KRHV 250455Z 31005KT 10SM SKC 20/16 A2996 RMK LAST
KOAK - Oakland, California, USA
Distance from station: NNW 31mi, 50km
Updated: 08,25/2019 1:53am
Mostly cloudy
Mostly cloudy
 Wind from NW
Wind: NW 8 mph , 13 km/h
Temperature: 63°F , 17°C
Dew Point: 57°F , 14°C
Humidity: 83%
Barometer: 29.98 inHg , 1015.2 hPa
Clouds: Mostly cloudy
Visibility: 10 miles , 16 km
Cloud details: Partly cloudy 600 ft
Mostly cloudy 800 ft
2019/08/25 05:53 KOAK 250553Z 31007KT 10SM SCT006 BKN008 17/14 A2998 RMK AO2 SLP151 T01670144 10222 20167 53012
KSQL - San Carlos Airpo, California, USA
Distance from station: NW 21mi, 34km
Updated: 08,24/2019 11:47pm
NOT Current
Clear
Clear
 Wind from NNW
Wind: NNW 3 mph , 6 km/h
Temperature: 66°F , 19°C
Dew Point: 59°F , 15°C
Humidity: 78%
Barometer: 29.94 inHg , 1013.9 hPa
Clouds: Clear
Visibility: 10 miles , 16 km
2019/08/25 03:47 KSQL 250347Z 34003KT 10SM SKC 19/15 A2994 RMK LAST
 
KSFO - San Francisco, California, USA
Distance from station: NW 30mi, 49km
Updated: 08,25/2019 1:56am
Partly cloudy
Partly cloudy
 Wind from WNW
Wind: WNW 15 mph , 24 km/h
Temperature: 61°F , 16°C
Dew Point: 57°F , 14°C
Humidity: 88%
Barometer: 29.96 inHg , 1014.6 hPa
Clouds: Partly cloudy
Visibility: 7 miles , 11 km
Cloud details: Few Clouds 200 ft
Partly cloudy 400 ft
2019/08/25 05:56 KSFO 250556Z 29013KT 7SM FEW002 SCT004 16/14 A2996 RMK AO2 SLP146 T01610139 10211 20161 51011
KE16 - San Martin, California, USA
Distance from station: ESE 27mi, 43km
Updated: 08,05/2019 1:10pm
NOT Current
Clear
Clear
 Wind from ESE
Wind: ESE 12 mph , 19 km/h
Temperature: 66°F , 19°C
Dew Point: 57°F , 14°C
Humidity: 73%
Barometer: 30.03 inHg , 1016.9 hPa
Clouds: Clear
Visibility: 10 miles , 16 km
2019/08/05 17:10 KE16 051710Z AUTO 12010KT 10SM CLR 19/14 A3003 RMK AO2
KWVI - Watsonville, California, USA
Distance from station: SSE 27mi, 44km
Updated: 08,25/2019 2:24am
Overcast
Overcast
 Wind from calm
Wind: Calm
Temperature: 61°F , 16°C
Dew Point: 57°F , 14°C
Humidity: 88%
Barometer: 29.98 inHg , 1015.2 hPa
Clouds: Overcast
Visibility: 8 miles , 13 km
Cloud details: Overcast 400 ft
2019/08/25 06:24 KWVI 250624Z AUTO 00000KT 8SM OVC004 16/14 A2998 RMK AO2 T01610144
 
KHAF - Half Moon Bay, California, USA
Distance from station: WNW 31mi, 50km
Updated: 08,25/2019 2:40am
Fog, Overcast
Fog, Overcast
 Wind from calm
Wind: Calm
Temperature: 57°F , 14°C
Dew Point: 57°F , 14°C
Humidity: 100%
Barometer: 29.99 inHg , 1015.6 hPa
Summary: Fog
Clouds: Overcast
Visibility: 1/2 mile , 0.8 km
Cloud details: Overcast 200 ft
2019/08/25 06:40 KHAF 250640Z AUTO 00000KT 1/2SM FG OVC002 14/14 A2999 RMK AO2
KHWD - Hayward, California, USA
Distance from station: N 28mi, 44km
Updated: 08,25/2019 1:54am
Clear
Clear
 Wind from NW
Wind: NW 7 mph , 11 km/h
Temperature: 63°F , 17°C
Dew Point: 57°F , 14°C
Humidity: 83%
Barometer: 29.96 inHg , 1014.6 hPa
Clouds: Clear
Visibility: 10 miles , 16 km
2019/08/25 05:54 KHWD 250554Z AUTO 32006KT 10SM CLR 17/14 A2996 RMK AO2 SLP155 T01720144 10256 20172 51009
KLVK - Livermore, California, USA
Distance from station: NNE 31mi, 51km
Updated: 08,25/2019 1:53am
Clear
Clear
 Wind from W
Wind: W 3 mph , 6 km/h
Temperature: 70°F , 21°C
Dew Point: 55°F , 13°C
Humidity: 60%
Barometer: 29.94 inHg , 1013.9 hPa
Clouds: Clear
Visibility: 10 miles , 16 km
2019/08/25 05:53 KLVK 250553Z AUTO 28003KT 10SM CLR 21/13 A2994 RMK AO2 SLP136 T02110133 10317 20206 51011